^^
Lisbon, NH - Weather Station Historical Data
Daily Summary for July 31, 2021 Units:  English    Metric   Both
Daily Weekly Monthly Yearly
  High: Low: Average:
Temperature: 71.5 °F 52.2 °F 61.9 °F
Dew Point: 54.9 °F 43.9 °F 49.6 °F
Humidity: 96.8% 38.7% 67%
Wind Speed: 5.7mph 0mph 0.7mph
Wind Gust: 13mph - -
Wind- - SSE
Pressure: 29.90 in 29.83 in -
Precipitation: 0.00 in    
 
 
Tabular Data for July 31, 2021
Time Temperature Dew Point Pressure Wind Wind Speed Wind Gust Humidity Rainfall Rate (Hourly) solar
00:04 58.1 °F 48.3 °F 29.86 in NW 0.1 mph 2 mph 69.8% 0.00 in 0 W/m2
00:09 58.1 °F 48.6 °F 29.86 in North 0.2 mph 2 mph 70.6% 0.00 in 0 W/m2
00:14 58 °F 48.8 °F 29.86 in WSW 0.6 mph 2 mph 71.2% 0.00 in 0 W/m2
00:19 57.9 °F 48.2 °F 29.86 in NW 0.3 mph 1 mph 70.2% 0.00 in 0 W/m2
00:24 57.8 °F 48.4 °F 29.86 in SW 0.5 mph 2 mph 70.6% 0.00 in 0 W/m2
00:29 57.8 °F 48.1 °F 29.86 in South 0.3 mph 2 mph 70% 0.00 in 0 W/m2
00:34 57.8 °F 48.2 °F 29.86 in ENE 0.5 mph 3 mph 70.4% 0.00 in 0 W/m2
00:39 58 °F 48.4 °F 29.86 in NNE 1.3 mph 6 mph 70.3% 0.00 in 0 W/m2
00:44 58 °F 48.3 °F 29.86 in NE 0.8 mph 4 mph 70% 0.00 in 0 W/m2
00:49 58 °F 48.1 °F 29.85 in North 0.4 mph 4 mph 69.5% 0.00 in 0 W/m2
00:54 58 °F 48 °F 29.85 in ESE 0.5 mph 2 mph 69.3% 0.00 in 0 W/m2
00:59 58.1 °F 48.3 °F 29.85 in South 0.5 mph 2 mph 69.9% 0.00 in 0 W/m2
01:04 58.1 °F 48.3 °F 29.85 in SE 0.2 mph 1 mph 69.8% 0.00 in 0 W/m2
01:09 58 °F 48 °F 29.85 in SE 0.6 mph 2 mph 69.3% 0.00 in 0 W/m2
01:14 58 °F 48.3 °F 29.85 in NNE 0.4 mph 2 mph 70% 0.00 in 0 W/m2
01:19 58 °F 48 °F 29.85 in NNW 0.2 mph 2 mph 69.4% 0.00 in 0 W/m2
01:24 58 °F 48.2 °F 29.85 in SE 0.5 mph 3 mph 69.7% 0.00 in 0 W/m2
01:29 58 °F 48.4 °F 29.85 in North 0.6 mph 3 mph 70.3% 0.00 in 0 W/m2
01:34 58 °F 48.3 °F 29.84 in ESE 0.2 mph 2 mph 70.2% 0.00 in 0 W/m2
01:39 57.8 °F 48.1 °F 29.84 in NNE 0.3 mph 2 mph 70% 0.00 in 0 W/m2
01:44 57.8 °F 47.9 °F 29.84 in Calm   1 mph 69.6% 0.00 in 0 W/m2
01:49 57.8 °F 48.2 °F 29.84 in NE 0.1 mph 2 mph 70.3% 0.00 in 0 W/m2
01:54 57.8 °F 48.5 °F 29.84 in NE 0.6 mph 3 mph 71% 0.00 in 0 W/m2
01:59 57.8 °F 49.2 °F 29.84 in Calm     73% 0.00 in 0 W/m2
02:04 57.6 °F 49.4 °F 29.84 in Calm     73.9% 0.00 in 0 W/m2
02:09 57.5 °F 48.7 °F 29.84 in ENE 1.1 mph 3 mph 72.4% 0.00 in 0 W/m2
02:14 57.4 °F 48.7 °F 29.84 in NE 0.3 mph 2 mph 72.7% 0.00 in 0 W/m2
02:19 57.3 °F 48.6 °F 29.84 in NE 0.3 mph 3 mph 72.6% 0.00 in 0 W/m2
02:24 57.3 °F 48.7 °F 29.84 in ENE 1.4 mph 3 mph 72.9% 0.00 in 0 W/m2
02:29 57.3 °F 48.3 °F 29.84 in ENE 2.1 mph 6 mph 71.8% 0.00 in 0 W/m2
02:34 57.4 °F 48.3 °F 29.83 in ENE 1.9 mph 5 mph 71.5% 0.00 in 0 W/m2
02:39 57.5 °F 48.5 °F 29.83 in ESE 0.6 mph 5 mph 72% 0.00 in 0 W/m2
02:44 57.4 °F 48.1 °F 29.84 in ESE 0.6 mph 3 mph 71% 0.00 in 0 W/m2
02:49 57.5 °F 48.4 °F 29.84 in ENE 0.9 mph 4 mph 71.7% 0.00 in 0 W/m2
02:54 57.3 °F 48.1 °F 29.84 in WNW 0.3 mph 2 mph 71.4% 0.00 in 0 W/m2
02:59 57.3 °F 48 °F 29.84 in West 0.4 mph 1 mph 71.1% 0.00 in 0 W/m2
03:04 57.3 °F 48 °F 29.84 in ENE 0.7 mph 2 mph 71% 0.00 in 0 W/m2
03:09 57.3 °F 48.2 °F 29.84 in ENE 1.8 mph 5 mph 71.6% 0.00 in 0 W/m2
03:14 57.3 °F 48.2 °F 29.84 in ESE 1.1 mph 5 mph 71.5% 0.00 in 0 W/m2
03:19 57.2 °F 48.2 °F 29.83 in East 0.7 mph 2 mph 71.9% 0.00 in 0 W/m2
03:24 57.2 °F 48.2 °F 29.83 in Calm   2 mph 71.8% 0.00 in 0 W/m2
03:29 57 °F 48.6 °F 29.83 in Calm   1 mph 73.4% 0.00 in 0 W/m2
03:34 56.7 °F 48.9 °F 29.83 in Calm   1 mph 75% 0.00 in 0 W/m2
03:39 56.4 °F 49.2 °F 29.83 in Calm     76.7% 0.00 in 0 W/m2
03:44 56 °F 49.5 °F 29.84 in NNE 0.1 mph 1 mph 78.6% 0.00 in 0 W/m2
03:49 55.7 °F 50 °F 29.84 in Calm     81.2% 0.00 in 0 W/m2
03:54 55.3 °F 50.2 °F 29.84 in Calm     82.8% 0.00 in 0 W/m2
03:59 55 °F 49.6 °F 29.84 in Calm     82% 0.00 in 0 W/m2
04:04 54.7 °F 49.1 °F 29.83 in NW 0.4 mph 2 mph 81.4% 0.00 in 0 W/m2
04:09 54.5 °F 48.8 °F 29.83 in Calm   1 mph 81% 0.00 in 0 W/m2
04:14 54.6 °F 48.8 °F 29.83 in ESE 0.1 mph 2 mph 80.5% 0.00 in 0 W/m2
04:19 54.7 °F 48.7 °F 29.83 in SSE 0.5 mph 3 mph 80.3% 0.00 in 0 W/m2
04:24 54.7 °F 48.6 °F 29.83 in South 0.1 mph 1 mph 79.9% 0.00 in 0 W/m2
04:29 54.7 °F 48.4 °F 29.83 in South 0.2 mph 1 mph 79% 0.00 in 0 W/m2
04:34 54.8 °F 48.4 °F 29.83 in South 0.3 mph 2 mph 79% 0.00 in 0 W/m2
04:39 54.8 °F 48.2 °F 29.83 in SSW 0.5 mph 2 mph 78.4% 0.00 in 0 W/m2
04:44 54.9 °F 48.3 °F 29.83 in SSW 1.1 mph 5 mph 78.4% 0.00 in 0 W/m2
04:49 55 °F 48.3 °F 29.83 in SSE 0.1 mph 1 mph 78% 0.00 in 0 W/m2
04:54 55 °F 48.3 °F 29.83 in SSE 0.4 mph 2 mph 78% 0.00 in 0 W/m2
04:59 55 °F 48.3 °F 29.84 in SSE 0.3 mph 1 mph 78.1% 0.00 in 0 W/m2
05:04 55 °F 48.6 °F 29.84 in SSE 0.1 mph 1 mph 79% 0.00 in 0 W/m2
05:09 54.8 °F 48.4 °F 29.84 in Calm     79% 0.00 in 0 W/m2
05:14 54.6 °F 48.3 °F 29.84 in Calm     79.3% 0.00 in 0 W/m2
05:19 54.4 °F 48.8 °F 29.84 in Calm     81.1% 0.00 in 0 W/m2
05:24 54.2 °F 49 °F 29.84 in Calm     82.6% 0.00 in 5 W/m2
05:29 53.9 °F 49.1 °F 29.86 in Calm     83.6% 0.00 in 7 W/m2
05:34 53.6 °F 49.2 °F 29.86 in Calm     84.8% 0.00 in 9 W/m2
05:39 53.4 °F 49.3 °F 29.86 in Calm     86% 0.00 in 11 W/m2
05:44 53.2 °F 49.3 °F 29.86 in Calm     86.6% 0.00 in 12 W/m2
05:49 53 °F 49.5 °F 29.86 in Calm     87.6% 0.00 in 12 W/m2
05:54 52.8 °F 49.4 °F 29.86 in Calm     88% 0.00 in 14 W/m2
05:59 52.7 °F 49.4 °F 29.86 in Calm     88.6% 0.00 in 16 W/m2
06:04 52.5 °F 49.5 °F 29.86 in Calm     89.3% 0.00 in 23 W/m2
06:09 52.4 °F 49.5 °F 29.86 in Calm     90% 0.00 in 30 W/m2
06:14 52.3 °F 49.6 °F 29.88 in Calm     90.6% 0.00 in 32 W/m2
06:19 52.3 °F 49.8 °F 29.88 in Calm     91% 0.00 in 32 W/m2
06:24 52.3 °F 49.8 °F 29.88 in Calm     91% 0.00 in 32 W/m2
06:29 52.3 °F 49.8 °F 29.88 in Calm     91.1% 0.00 in 42 W/m2
06:34 52.3 °F 50 °F 29.88 in Calm     92% 0.00 in 69 W/m2
06:39 52.4 °F 50.3 °F 29.88 in Calm     92.6% 0.00 in 77 W/m2
06:44 52.5 °F 50.5 °F 29.88 in Calm     93% 0.00 in 141 W/m2
06:49 52.7 °F 50.8 °F 29.88 in Calm     93% 0.00 in 141 W/m2
06:54 52.9 °F 50.9 °F 29.88 in South 0.3 mph 2 mph 92.7% 0.00 in 116 W/m2
06:59 53.1 °F 50.9 °F 29.89 in Calm   1 mph 92% 0.00 in 74 W/m2
07:04 53.2 °F 51 °F 29.89 in Calm     92% 0.00 in 106 W/m2
07:09 53.5 °F 51.2 °F 29.89 in Calm     92% 0.00 in 116 W/m2
07:14 53.8 °F 51.5 °F 29.89 in Calm     92% 0.00 in 271 W/m2
07:19 54.6 °F 52.4 °F 29.89 in Calm     92.5% 0.00 in 292 W/m2
07:24 55.4 °F 52.4 °F 29.89 in Calm     89.8% 0.00 in 324 W/m2
07:29 56.3 °F 52.8 °F 29.89 in SE 0.8 mph 2 mph 88.1% 0.00 in 334 W/m2
07:34 56.8 °F 52.2 °F 29.89 in SSW 0.8 mph 2 mph 84.4% 0.00 in 336 W/m2
07:39 57.3 °F 52.3 °F 29.89 in SSW 1 mph 4 mph 83.1% 0.00 in 352 W/m2
07:44 57.7 °F 51.5 °F 29.90 in South 0.9 mph 4 mph 79.7% 0.00 in 373 W/m2
07:49 58.3 °F 51.9 °F 29.90 in South 0.5 mph 3 mph 79.4% 0.00 in 412 W/m2
07:54 58.8 °F 51.5 °F 29.90 in SSW 1.1 mph 3 mph 76.7% 0.00 in 435 W/m2
07:59 59.2 °F 51.5 °F 29.90 in South 0.8 mph 2 mph 75.7% 0.00 in 487 W/m2
08:04 59.5 °F 50.5 °F 29.89 in SSW 1.5 mph 3 mph 72.1% 0.00 in 491 W/m2
08:09 59.8 °F 50.3 °F 29.89 in SSW 1.7 mph 6 mph 71% 0.00 in 491 W/m2
08:14 60.6 °F 51.1 °F 29.89 in South 1.1 mph 5 mph 71% 0.00 in 487 W/m2
08:19 61.4 °F 50.9 °F 29.89 in South 1.6 mph 5 mph 68.4% 0.00 in 577 W/m2
08:24 61.6 °F 50.5 °F 29.89 in South 1.1 mph 3 mph 67% 0.00 in 635 W/m2
08:29 62 °F 50.6 °F 29.89 in SSE 0.9 mph 5 mph 66.3% 0.00 in 695 W/m2
08:34 62.5 °F 50.6 °F 29.89 in SSW 1.4 mph 5 mph 65% 0.00 in 695 W/m2
08:39 63 °F 51.1 °F 29.89 in SW 0.5 mph 3 mph 65.1% 0.00 in 676 W/m2
08:44 63.5 °F 51.5 °F 29.89 in West 0.8 mph 2 mph 64.8% 0.00 in 721 W/m2
08:49 63.6 °F 50.5 °F 29.89 in East 1.8 mph 5 mph 62.5% 0.00 in 721 W/m2
08:54 63.7 °F 51.1 °F 29.89 in WSW 0.7 mph 3 mph 63.4% 0.00 in 208 W/m2
08:59 64 °F 50.6 °F 29.89 in East 1.2 mph 7 mph 61.7% 0.00 in 704 W/m2
09:04 64.4 °F 50.6 °F 29.89 in NE 2 mph 7 mph 61% 0.00 in 737 W/m2
09:09 64.6 °F 50 °F 29.89 in NNW 0.8 mph 2 mph 59% 0.00 in 737 W/m2
09:14 64.2 °F 50.8 °F 29.89 in NW 0.2 mph 1 mph 61.7% 0.00 in 741 W/m2
09:19 64 °F 50.5 °F 29.89 in WNW 0.4 mph 2 mph 61.3% 0.00 in 741 W/m2
09:24 64.6 °F 51.2 °F 29.89 in West 0.5 mph 2 mph 61.9% 0.00 in 797 W/m2
09:29 64.9 °F 50.8 °F 29.89 in NNW 0.4 mph 2 mph 60.3% 0.00 in 797 W/m2
09:34 65.4 °F 50.4 °F 29.88 in North 1.1 mph 5 mph 58.5% 0.00 in 785 W/m2
09:39 65.4 °F 50.3 °F 29.88 in SSE 0.5 mph 5 mph 58% 0.00 in 816 W/m2
09:44 65.6 °F 50.3 °F 29.88 in WNW 0.8 mph 3 mph 57.7% 0.00 in 774 W/m2
09:49 65.4 °F 50 °F 29.88 in WNW 1 mph 3 mph 57.5% 0.00 in 873 W/m2
09:54 65.9 °F 50.7 °F 29.88 in North 0.4 mph 2 mph 57.9% 0.00 in 873 W/m2
09:59 66.7 °F 50.6 °F 29.88 in SSE 1.2 mph 3 mph 56.2% 0.00 in 857 W/m2
10:04 66.8 °F 50.9 °F 29.88 in NNW 0.3 mph 2 mph 56.6% 0.00 in 857 W/m2
10:09 67.1 °F 50.7 °F 29.88 in ESE 0.7 mph 2 mph 55.7% 0.00 in 841 W/m2
10:14 67 °F 51.3 °F 29.88 in NE 0.8 mph 3 mph 57% 0.00 in 841 W/m2
10:19 67.3 °F 50.9 °F 29.88 in SSE 1.2 mph 3 mph 55.7% 0.00 in 839 W/m2
10:24 67.5 °F 50.6 °F 29.88 in SSW 1 mph 3 mph 54.6% 0.00 in 857 W/m2
10:29 67.7 °F 49.4 °F 29.88 in East 1.2 mph 5 mph 51.9% 0.00 in 834 W/m2
10:34 67.5 °F 49.3 °F 29.88 in SE 0.6 mph 3 mph 52.2% 0.00 in 910 W/m2
10:39 68 °F 51.5 °F 29.88 in ENE 0.5 mph 2 mph 55.4% 0.00 in 931 W/m2
10:44 68.7 °F 51.6 °F 29.88 in East 1.2 mph 4 mph 54.4% 0.00 in 883 W/m2
10:49 69.1 °F 50.7 °F 29.87 in WNW 1.1 mph 3 mph 51.8% 0.00 in 878 W/m2
10:54 69 °F 50.7 °F 29.87 in NW 1.4 mph 6 mph 52.1% 0.00 in 894 W/m2
10:59 68.9 °F 50.9 °F 29.87 in SE 0.4 mph 2 mph 52.7% 0.00 in 894 W/m2
11:04 69.4 °F 50.6 °F 29.87 in East 0.5 mph 3 mph 51.2% 0.00 in 896 W/m2
11:09 69.7 °F 51.8 °F 29.87 in East 1.3 mph 6 mph 52.9% 0.00 in 890 W/m2
11:14 69.8 °F 50.8 °F 29.87 in ENE 2.3 mph 6 mph 50.8% 0.00 in 924 W/m2
11:19 69.5 °F 49.4 °F 29.86 in East 3.6 mph 7 mph 48.9% 0.00 in 947 W/m2
11:24 68.4 °F 49 °F 29.86 in NNE 1.1 mph 3 mph 49.9% 0.00 in 940 W/m2
11:29 68.4 °F 48.3 °F 29.87 in WNW 0.9 mph 2 mph 48.7% 0.00 in 940 W/m2
11:34 68.4 °F 48.5 °F 29.87 in SSW 2.2 mph 7 mph 49.1% 0.00 in 926 W/m2
11:39 68.5 °F 48.6 °F 29.87 in North 1 mph 3 mph 49.1% 0.00 in 931 W/m2
11:44 68.8 °F 48.9 °F 29.87 in WSW 1.7 mph 6 mph 49% 0.00 in 977 W/m2
11:49 69.1 °F 49 °F 29.86 in West 1.4 mph 7 mph 48.8% 0.00 in 991 W/m2
11:54 69.3 °F 49 °F 29.86 in ENE 0.7 mph 2 mph 48.5% 0.00 in 991 W/m2
11:59 69.4 °F 50.8 °F 29.86 in SSW 2 mph 6 mph 51.6% 0.00 in 962 W/m2
12:04 69.6 °F 51.1 °F 29.86 in ENE 0.9 mph 3 mph 51.8% 0.00 in 962 W/m2
12:09 69.4 °F 50.6 °F 29.86 in ENE 1.6 mph 3 mph 51.2% 0.00 in 1003 W/m2
12:14 69.7 °F 49.3 °F 29.86 in SE 1.5 mph 4 mph 48.3% 0.00 in 1005 W/m2
12:19 69.9 °F 48.6 °F 29.85 in WNW 1.7 mph 3 mph 46.8% 0.00 in 1026 W/m2
12:24 69.8 °F 47.4 °F 29.85 in ENE 3.9 mph 8 mph 44.8% 0.00 in 1026 W/m2
12:29 69.7 °F 47.5 °F 29.85 in NE 3.4 mph 12 mph 45.2% 0.00 in 1005 W/m2
12:34 70.2 °F 47.3 °F 29.85 in NNE 0.8 mph 7 mph 44.1% 0.00 in 955 W/m2
12:39 70.7 °F 47.2 °F 29.85 in ENE 1.4 mph 3 mph 43.2% 0.00 in 962 W/m2
12:44 70.7 °F 47.2 °F 29.85 in ENE 1.5 mph 6 mph 43.1% 0.00 in 962 W/m2
12:49 70.8 °F 46.7 °F 29.85 in South 1.3 mph 5 mph 42.1% 0.00 in 970 W/m2
12:54 70.9 °F 46.2 °F 29.85 in West 1.5 mph 6 mph 41.3% 0.00 in 996 W/m2
12:59 70.5 °F 47.4 °F 29.85 in NNW 1.2 mph 4 mph 43.7% 0.00 in 996 W/m2
13:04 70.7 °F 45.4 °F 29.85 in East 1.5 mph 8 mph 40.4% 0.00 in 1003 W/m2
13:09 70.9 °F 46.2 °F 29.85 in NNE 2 mph 12 mph 41.2% 0.00 in 1031 W/m2
13:14 70.5 °F 45.6 °F 29.85 in East 2.4 mph 13 mph 40.9% 0.00 in 1029 W/m2
13:19 70.5 °F 47 °F 29.85 in ENE 1 mph 3 mph 43% 0.00 in 1029 W/m2
13:24 70.7 °F 46.8 °F 29.85 in ESE 1 mph 4 mph 42.4% 0.00 in 1084 W/m2
13:29 70.8 °F 46.1 °F 29.85 in ENE 0.4 mph 2 mph 41.1% 0.00 in 1026 W/m2
13:34 71.1 °F 46 °F 29.85 in ESE 0.7 mph 2 mph 40.6% 0.00 in 1022 W/m2
13:39 71.5 °F 48.1 °F 29.85 in SSW 1.5 mph 5 mph 43.5% 0.00 in 1047 W/m2
13:44 71.2 °F 46.4 °F 29.85 in South 2.4 mph 7 mph 41.2% 0.00 in 1005 W/m2
13:49 71 °F 45.3 °F 29.84 in NNW 1.5 mph 7 mph 39.8% 0.00 in 1029 W/m2
13:54 70.8 °F 46.2 °F 29.84 in South 1.2 mph 5 mph 41.3% 0.00 in 1028 W/m2
13:59 70.9 °F 46.4 °F 29.85 in NW 0.9 mph 3 mph 41.6% 0.00 in 1001 W/m2
14:04 70.9 °F 45.6 °F 29.85 in SSE 2.5 mph 10 mph 40.4% 0.00 in 1001 W/m2
14:09 70.7 °F 45.7 °F 29.85 in ENE 3.8 mph 10 mph 40.8% 0.00 in 962 W/m2
14:14 70.8 °F 46.8 °F 29.85 in East 1 mph 7 mph 42.3% 0.00 in 945 W/m2
14:19 70.8 °F 46.1 °F 29.85 in SE 1.9 mph 6 mph 41.3% 0.00 in 915 W/m2
14:24 70.6 °F 45 °F 29.85 in SE 2.4 mph 6 mph 39.8% 0.00 in 623 W/m2
14:29 70.6 °F 46.9 °F 29.85 in ENE 2.6 mph 7 mph 42.7% 0.00 in 514 W/m2
14:34 70.9 °F 47.2 °F 29.84 in ESE 1.2 mph 3 mph 42.8% 0.00 in 429 W/m2
14:39 70.9 °F 45.7 °F 29.84 in North 1.7 mph 4 mph 40.4% 0.00 in 289 W/m2
14:44 70.6 °F 45.5 °F 29.84 in NNW 2.6 mph 10 mph 40.6% 0.00 in 357 W/m2
14:49 70.5 °F 45.8 °F 29.84 in NE 2.9 mph 10 mph 41.2% 0.00 in 357 W/m2
14:54 70.8 °F 47.3 °F 29.84 in NE 1.9 mph 6 mph 43.1% 0.00 in 176 W/m2
14:59 70.9 °F 46.7 °F 29.84 in WNW 1.4 mph 3 mph 42% 0.00 in 134 W/m2
15:04 70.7 °F 45.2 °F 29.84 in NW 1.8 mph 6 mph 40% 0.00 in 178 W/m2
15:09 70.6 °F 46.1 °F 29.84 in South 1.4 mph 5 mph 41.4% 0.00 in 218 W/m2
15:14 70.9 °F 46.9 °F 29.84 in SE 1.8 mph 5 mph 42.4% 0.00 in 264 W/m2
15:19 71.2 °F 48.8 °F 29.84 in South 0.6 mph 3 mph 45% 0.00 in 243 W/m2
15:24 71.2 °F 45.8 °F 29.84 in SW 1.5 mph 6 mph 40.2% 0.00 in 266 W/m2
15:29 71 °F 46.8 °F 29.84 in East 0.8 mph 3 mph 42% 0.00 in 266 W/m2
15:34 71.1 °F 47.7 °F 29.84 in East 1 mph 3 mph 43.5% 0.00 in 195 W/m2
15:39 71.2 °F 47.7 °F 29.84 in ESE 0.8 mph 3 mph 43.3% 0.00 in 362 W/m2
15:44 71.3 °F 48 °F 29.84 in ENE 1.6 mph 8 mph 43.5% 0.00 in 195 W/m2
15:49 71.4 °F 48.6 °F 29.84 in ENE 2.5 mph 8 mph 44.4% 0.00 in 179 W/m2
15:54 71.3 °F 47.3 °F 29.84 in ENE 5.7 mph 13 mph 42.5% 0.00 in 165 W/m2
15:59 71.1 °F 46.5 °F 29.84 in NE 2.4 mph 7 mph 41.5% 0.00 in 164 W/m2
16:04 71 °F 46.5 °F 29.84 in East 2.1 mph 6 mph 41.5% 0.00 in 202 W/m2
16:09 70.8 °F 46 °F 29.84 in SSW 1 mph 6 mph 41.1% 0.00 in 160 W/m2
16:14 70.3 °F 43.9 °F 29.84 in ESE 1.5 mph 5 mph 38.7% 0.00 in 113 W/m2
16:19 70.1 °F 46.3 °F 29.84 in NE 1.3 mph 5 mph 42.5% 0.00 in 139 W/m2
16:24 70.2 °F 47.3 °F 29.84 in NE 2.7 mph 10 mph 44.1% 0.00 in 164 W/m2
16:29 70.3 °F 47 °F 29.84 in East 1.3 mph 3 mph 43.4% 0.00 in 143 W/m2
16:34 70.4 °F 47.1 °F 29.84 in NE 2.2 mph 8 mph 43.5% 0.00 in 102 W/m2
16:39 70.1 °F 46.8 °F 29.84 in SSE 0.9 mph 6 mph 43.4% 0.00 in 111 W/m2
16:44 69.8 °F 45.6 °F 29.84 in South 0.5 mph 2 mph 41.9% 0.00 in 172 W/m2
16:49 69.7 °F 45.7 °F 29.84 in SW 0.4 mph 3 mph 42.2% 0.00 in 95 W/m2
16:54 69.5 °F 45.8 °F 29.84 in WNW 0.1 mph 1 mph 42.6% 0.00 in 146 W/m2
16:59 69.3 °F 45.5 °F 29.84 in Calm   1 mph 42.4% 0.00 in 176 W/m2
17:04 69.3 °F 47.1 °F 29.84 in WSW 0.5 mph 2 mph 45% 0.00 in 162 W/m2
17:09 69.4 °F 47.6 °F 29.84 in SSE 0.9 mph 3 mph 45.7% 0.00 in 135 W/m2
17:14 69.4 °F 46.5 °F 29.84 in West 1.2 mph 3 mph 43.9% 0.00 in 116 W/m2
17:19 69.4 °F 46.4 °F 29.84 in SE 0.8 mph 2 mph 43.7% 0.00 in 113 W/m2
17:24 69.3 °F 45.6 °F 29.84 in NNW 1 mph 6 mph 42.5% 0.00 in 143 W/m2
17:29 69.3 °F 46 °F 29.84 in SW 0.4 mph 2 mph 43.3% 0.00 in 139 W/m2
17:34 69.1 °F 46.7 °F 29.84 in SW 0.9 mph 3 mph 44.7% 0.00 in 123 W/m2
17:39 69.1 °F 48.3 °F 29.84 in SSW 0.5 mph 3 mph 47.4% 0.00 in 113 W/m2
17:44 69.2 °F 48.5 °F 29.84 in SW 1 mph 5 mph 47.5% 0.00 in 102 W/m2
17:49 69.1 °F 47.4 °F 29.84 in WSW 0.6 mph 2 mph 45.9% 0.00 in 81 W/m2
17:54 68.9 °F 47.1 °F 29.84 in West 0.4 mph 2 mph 45.7% 0.00 in 81 W/m2
17:59 68.8 °F 48.4 °F 29.84 in SW 0.1 mph 2 mph 48.1% 0.00 in 90 W/m2
18:04 68.7 °F 49.9 °F 29.84 in Calm     51.2% 0.00 in 90 W/m2
18:09 68.6 °F 51.2 °F 29.84 in Calm     53.7% 0.00 in 90 W/m2
18:14 68.6 °F 49.8 °F 29.84 in Calm     50.9% 0.00 in 83 W/m2
18:19 68.8 °F 49.6 °F 29.84 in Calm     50.3% 0.00 in 56 W/m2
18:24 68.8 °F 52.7 °F 29.84 in Calm   1 mph 56.5% 0.00 in 44 W/m2
18:29 68.4 °F 53.1 °F 29.84 in Calm   1 mph 58% 0.00 in 44 W/m2
18:34 68.1 °F 53.4 °F 29.84 in SW 0.5 mph 1 mph 59.3% 0.00 in 42 W/m2
18:39 67.6 °F 53.3 °F 29.84 in NW 0.1 mph 1 mph 60.2% 0.00 in 42 W/m2
18:44 67 °F 52.7 °F 29.85 in Calm     60.2% 0.00 in 44 W/m2
18:49 66.5 °F 52.6 °F 29.85 in Calm     60.9% 0.00 in 49 W/m2
18:54 66.1 °F 52.8 °F 29.85 in Calm     62% 0.00 in 53 W/m2
18:59 65.8 °F 54.3 °F 29.85 in Calm     66.3% 0.00 in 55 W/m2
19:04 65.4 °F 54.2 °F 29.85 in Calm     67% 0.00 in 49 W/m2
19:09 65.1 °F 54 °F 29.85 in Calm     67.4% 0.00 in 40 W/m2
19:14 64.6 °F 53.9 °F 29.85 in Calm     68% 0.00 in 42 W/m2
19:19 64.2 °F 54.2 °F 29.85 in Calm     69.8% 0.00 in 39 W/m2
19:24 63.9 °F 54.3 °F 29.85 in Calm     71.1% 0.00 in 32 W/m2
19:29 63.6 °F 54.7 °F 29.85 in Calm     72.9% 0.00 in 23 W/m2
19:34 63.3 °F 54.9 °F 29.85 in Calm     74% 0.00 in 23 W/m2
19:39 63 °F 54.8 °F 29.85 in Calm     74.6% 0.00 in 16 W/m2
19:44 62.6 °F 54.6 °F 29.85 in Calm     75.1% 0.00 in 12 W/m2
19:49 62.3 °F 54.6 °F 29.85 in Calm     76% 0.00 in 11 W/m2
19:54 61.9 °F 54.5 °F 29.85 in Calm     76.8% 0.00 in 11 W/m2
19:59 61.4 °F 54.4 °F 29.86 in Calm     77.6% 0.00 in 9 W/m2
20:04 61.2 °F 54.6 °F 29.86 in Calm     78.9% 0.00 in 9 W/m2
20:09 60.6 °F 54 °F 29.86 in Calm     79% 0.00 in 7 W/m2
20:14 60 °F 53.5 °F 29.86 in Calm     79% 0.00 in 5 W/m2
20:19 59.7 °F 53.4 °F 29.86 in Calm     79.8% 0.00 in 5 W/m2
20:24 59.4 °F 53.4 °F 29.86 in Calm     80.4% 0.00 in 0 W/m2
20:29 59.1 °F 53.3 °F 29.86 in Calm     81% 0.00 in 0 W/m2
20:34 58.8 °F 53.3 °F 29.86 in Calm     81.9% 0.00 in 0 W/m2
20:39 58.4 °F 52.7 °F 29.86 in Calm     81.4% 0.00 in 0 W/m2
20:44 58.1 °F 52.3 °F 29.87 in Calm     81% 0.00 in 0 W/m2
20:49 57.8 °F 52.3 °F 29.87 in Calm     81.8% 0.00 in 0 W/m2
20:54 57.6 °F 52.4 °F 29.87 in Calm     82.8% 0.00 in 0 W/m2
20:59 57.3 °F 52.8 °F 29.87 in Calm     84.6% 0.00 in 0 W/m2
21:04 57.1 °F 52.8 °F 29.87 in Calm     85.6% 0.00 in 0 W/m2
21:09 56.8 °F 52.6 °F 29.87 in Calm     86% 0.00 in 0 W/m2
21:14 56.5 °F 52.5 °F 29.87 in Calm     86.3% 0.00 in 0 W/m2
21:19 56.3 °F 52.5 °F 29.87 in Calm     87% 0.00 in 0 W/m2
21:24 56.1 °F 52.3 °F 29.87 in Calm     87.2% 0.00 in 0 W/m2
21:29 55.9 °F 52.4 °F 29.88 in Calm     88% 0.00 in 0 W/m2
21:34 55.6 °F 52.1 °F 29.88 in Calm     88% 0.00 in 0 W/m2
21:39 55.4 °F 52 °F 29.88 in Calm     88.5% 0.00 in 0 W/m2
21:44 55.2 °F 52 °F 29.88 in Calm     89% 0.00 in 0 W/m2
21:49 55 °F 52.1 °F 29.88 in Calm     89.9% 0.00 in 0 W/m2
21:54 54.8 °F 52.2 °F 29.88 in Calm     90.7% 0.00 in 0 W/m2
21:59 54.7 °F 52.1 °F 29.88 in Calm     91% 0.00 in 0 W/m2
22:04 54.6 °F 52 °F 29.88 in Calm     91% 0.00 in 0 W/m2
22:09 54.4 °F 52.1 °F 29.88 in Calm     91.6% 0.00 in 0 W/m2
22:14 54.3 °F 52 °F 29.89 in Calm     92% 0.00 in 0 W/m2
22:19 54 °F 51.8 °F 29.89 in Calm     92% 0.00 in 0 W/m2
22:24 53.9 °F 51.6 °F 29.89 in Calm     92% 0.00 in 0 W/m2
22:29 53.8 °F 51.7 °F 29.89 in Calm     92.8% 0.00 in 0 W/m2
22:34 53.6 °F 51.6 °F 29.89 in Calm     93% 0.00 in 0 W/m2
22:39 53.5 °F 51.5 °F 29.89 in Calm     93% 0.00 in 0 W/m2
22:44 53.4 °F 51.4 °F 29.89 in Calm     93% 0.00 in 0 W/m2
22:49 53.2 °F 51.3 °F 29.89 in Calm     93.3% 0.00 in 0 W/m2
22:54 53.1 °F 51.4 °F 29.89 in Calm     94% 0.00 in 0 W/m2
22:59 53 °F 51.3 °F 29.89 in Calm     94% 0.00 in 0 W/m2
23:04 52.9 °F 51.4 °F 29.89 in Calm     94.5% 0.00 in 0 W/m2
23:09 52.9 °F 51.5 °F 29.89 in Calm     95% 0.00 in 0 W/m2
23:14 52.8 °F 51.4 °F 29.89 in Calm     95% 0.00 in 0 W/m2
23:19 52.8 °F 51.4 °F 29.89 in Calm     95% 0.00 in 0 W/m2
23:24 52.6 °F 51.2 °F 29.89 in Calm     95% 0.00 in 0 W/m2
23:29 52.5 °F 51.1 °F 29.89 in Calm     95% 0.00 in 0 W/m2
23:34 52.3 °F 51 °F 29.89 in Calm     95.4% 0.00 in 0 W/m2
23:39 52.2 °F 51.1 °F 29.89 in Calm     96% 0.00 in 0 W/m2
23:44 52.2 °F 51.1 °F 29.89 in Calm     96% 0.00 in 0 W/m2
23:49 52.2 °F 51.1 °F 29.89 in Calm     96% 0.00 in 0 W/m2
23:54 52.2 °F 51.1 °F 29.89 in Calm     96% 0.00 in 0 W/m2
23:59 52.2 °F 51.3 °F 29.89 in Calm     96.8% 0.00 in 0 W/m2
Lisbon, New Hampshire, USA
Compliments of Weather Underground - 4 mb